Nippon Maru — JNNU — position and weather

sailwx.info

Track history (hours):
 
Tides and Currents Weather Stations Pressure Air Temp Water Temp Dewpoint Dewpoint Depression Visibility Wind Speed Wind Dir Waves Ship Positions

Nippon Maru

Last reported at 2017-Oct-10 13:36 UTC. Time now 2017-Oct-18 09:17 UTC.
Position N 34°37' E 134°56'.

Length 166 m; draft 6.5 m.

Type: Passenger vessel. MMSI: 431302000.

Date/timePositionNaut miles runAvg speedWind from/ knotsBaromVisibWave heightAir tempDewpointWater temp
2017-Oct-10 13:36N 34°37' E 134°56'316.3
2017-Oct-10 13:25N 34°38' E 134°59'615.3
2017-Oct-10 13:01N 34°36' E 135°06'611.0
2017-Oct-10 12:31N 34°39' E 135°11'2 3.2
2017-Oct-10 12:01N 34°41' E 135°11'0 0.1
2017-Oct-10 11:31N 34°41' E 135°11'0 0.0
2017-Oct-10 10:55N 34°41' E 135°11'0 0.0
2017-Oct-10 10:25N 34°41' E 135°11'0 0.0
2017-Oct-10 09:55N 34°41' E 135°11'0 0.0
2017-Oct-10 09:25N 34°41' E 135°11'0 0.0
2017-Oct-10 08:55N 34°41' E 135°11'1 2.1
2017-Oct-10 08:30N 34°40' E 135°12'714.3
2017-Oct-10 08:00N 34°34' E 135°08'918.8
2017-Oct-10 07:30N 34°25' E 135°03'918.4
2017-Oct-10 07:00N 34°16' E 134°59'918.7
2017-Oct-10 06:31N 34°07' E 135°00'22116.0
2017-Oct-09 16:42N 34°50' E 139°23'918.2
2017-Oct-09 16:13N 34°50' E 139°34'518.4
2017-Oct-09 15:58N 34°50' E 139°40'1718.8
2017-Oct-09 15:06N 34°53' E 139°60'252 8.1
2017-Oct-08 08:00N 34°06' E 134°59'2219.2
2017-Oct-08 06:51N 34°28' E 135°01'618.2
2017-Oct-08 06:30N 34°34' E 135°03'714.4
2017-Oct-08 06:00N 34°35' E 134°55'  
2017-Oct-04 08:26N 34°54' E 140°02'11 0.5
2017-Oct-03 12:02N 34°52' E 139°49'112.6
2017-Oct-03 11:59N 34°53' E 139°48'713.6
2017-Oct-03 11:30N 34°58' E 139°43'612.3
2017-Oct-03 11:01N 35°04' E 139°42'612.9
2017-Oct-03 10:31N 35°10' E 139°45'612.5
2017-Oct-03 10:01N 35°16' E 139°46'713.5
2017-Oct-03 09:30N 35°22' E 139°42'611.1
2017-Oct-03 09:00N 35°27' E 139°39'0 0.5
2017-Oct-03 08:30N 35°27' E 139°39'0 0.0
2017-Oct-03 08:00N 35°27' E 139°39'0 0.0
2017-Oct-03 07:30N 35°27' E 139°39'0 0.0
2017-Oct-03 07:00N 35°27' E 139°39'0 0.0
2017-Oct-03 06:30N 35°27' E 139°39'0 0.7
2017-Oct-03 06:00N 35°27' E 139°39'4 7.8
2017-Oct-03 05:31N 35°25' E 139°43'612.4
2017-Oct-03 05:00N 35°19' E 139°44'612.6
2017-Oct-03 04:30N 35°13' E 139°47'713.5
2017-Oct-03 04:01N 35°06' E 139°45'713.3
2017-Oct-03 03:30N 35°01' E 139°41'714.7
2017-Oct-03 03:00N 34°54' E 139°37'7 0.2
2017-Oct-01 10:54N 34°59' E 139°32'716.1
2017-Oct-01 10:30N 35°03' E 139°38'715.3
2017-Oct-01 10:00N 35°08' E 139°45'713.8
2017-Oct-01 09:31N 35°14' E 139°46'612.7
2017-Oct-01 09:01N 35°20' E 139°42'713.2
2017-Oct-01 08:30N 35°26' E 139°42'2 4.8
2017-Oct-01 08:01N 35°27' E 139°39'0 0.0
2017-Oct-01 07:30N 35°27' E 139°39'0 0.0
2017-Oct-01 07:00N 35°27' E 139°39'0 0.0
2017-Oct-01 06:29N 35°27' E 139°39'0 0.0
2017-Oct-01 05:59N 35°27' E 139°39'0 0.0
2017-Oct-01 05:29N 35°27' E 139°39'0 0.0
2017-Oct-01 04:59N 35°27' E 139°39'0 0.0
2017-Oct-01 04:29N 35°27' E 139°39'0 0.0
2017-Oct-01 03:59N 35°27' E 139°39'0 0.0
2017-Oct-01 03:29N 35°27' E 139°39'0 0.0
2017-Oct-01 02:59N 35°27' E 139°39'  
Track history (hours):
 
Tides and Currents Weather Stations Pressure Air Temp Water Temp Dewpoint Dewpoint Depression Visibility Wind Speed Wind Dir Waves Ship Positions

Nippon Maru

Last reported at 2017-Oct-10 13:36 UTC. Time now 2017-Oct-18 09:17 UTC.
Position N 34°37' E 134°56'.

Length 166 m; draft 6.5 m.

Type: Passenger vessel. MMSI: 431302000.

Date/timePositionNaut miles runAvg speedWind from/ knotsBaromVisibWave heightAir tempDewpointWater temp
2017-Oct-10 13:36N 34°37' E 134°56'316.3
2017-Oct-10 13:25N 34°38' E 134°59'615.3
2017-Oct-10 13:01N 34°36' E 135°06'611.0
2017-Oct-10 12:31N 34°39' E 135°11'2 3.2
2017-Oct-10 12:01N 34°41' E 135°11'0 0.1
2017-Oct-10 11:31N 34°41' E 135°11'0 0.0
2017-Oct-10 10:55N 34°41' E 135°11'0 0.0
2017-Oct-10 10:25N 34°41' E 135°11'0 0.0
2017-Oct-10 09:55N 34°41' E 135°11'0 0.0
2017-Oct-10 09:25N 34°41' E 135°11'0 0.0
2017-Oct-10 08:55N 34°41' E 135°11'1 2.1
2017-Oct-10 08:30N 34°40' E 135°12'714.3
2017-Oct-10 08:00N 34°34' E 135°08'918.8
2017-Oct-10 07:30N 34°25' E 135°03'918.4
2017-Oct-10 07:00N 34°16' E 134°59'918.7
2017-Oct-10 06:31N 34°07' E 135°00'22116.0
2017-Oct-09 16:42N 34°50' E 139°23'918.2
2017-Oct-09 16:13N 34°50' E 139°34'518.4
2017-Oct-09 15:58N 34°50' E 139°40'1718.8
2017-Oct-09 15:06N 34°53' E 139°60'252 8.1
2017-Oct-08 08:00N 34°06' E 134°59'2219.2
2017-Oct-08 06:51N 34°28' E 135°01'618.2
2017-Oct-08 06:30N 34°34' E 135°03'714.4
2017-Oct-08 06:00N 34°35' E 134°55'  
2017-Oct-04 08:26N 34°54' E 140°02'11 0.5
2017-Oct-03 12:02N 34°52' E 139°49'112.6
2017-Oct-03 11:59N 34°53' E 139°48'713.6
2017-Oct-03 11:30N 34°58' E 139°43'612.3
2017-Oct-03 11:01N 35°04' E 139°42'612.9
2017-Oct-03 10:31N 35°10' E 139°45'612.5
2017-Oct-03 10:01N 35°16' E 139°46'713.5
2017-Oct-03 09:30N 35°22' E 139°42'611.1
2017-Oct-03 09:00N 35°27' E 139°39'0 0.5
2017-Oct-03 08:30N 35°27' E 139°39'0 0.0
2017-Oct-03 08:00N 35°27' E 139°39'0 0.0
2017-Oct-03 07:30N 35°27' E 139°39'0 0.0
2017-Oct-03 07:00N 35°27' E 139°39'0 0.0
2017-Oct-03 06:30N 35°27' E 139°39'0 0.7
2017-Oct-03 06:00N 35°27' E 139°39'4 7.8
2017-Oct-03 05:31N 35°25' E 139°43'612.4
2017-Oct-03 05:00N 35°19' E 139°44'612.6
2017-Oct-03 04:30N 35°13' E 139°47'713.5
2017-Oct-03 04:01N 35°06' E 139°45'713.3
2017-Oct-03 03:30N 35°01' E 139°41'714.7
2017-Oct-03 03:00N 34°54' E 139°37'7 0.2
2017-Oct-01 10:54N 34°59' E 139°32'716.1
2017-Oct-01 10:30N 35°03' E 139°38'715.3
2017-Oct-01 10:00N 35°08' E 139°45'713.8
2017-Oct-01 09:31N 35°14' E 139°46'612.7
2017-Oct-01 09:01N 35°20' E 139°42'713.2
2017-Oct-01 08:30N 35°26' E 139°42'2 4.8
2017-Oct-01 08:01N 35°27' E 139°39'0 0.0
2017-Oct-01 07:30N 35°27' E 139°39'0 0.0
2017-Oct-01 07:00N 35°27' E 139°39'0 0.0
2017-Oct-01 06:29N 35°27' E 139°39'0 0.0
2017-Oct-01 05:59N 35°27' E 139°39'0 0.0
2017-Oct-01 05:29N 35°27' E 139°39'0 0.0
2017-Oct-01 04:59N 35°27' E 139°39'0 0.0
2017-Oct-01 04:29N 35°27' E 139°39'0 0.0
2017-Oct-01 03:59N 35°27' E 139°39'0 0.0
2017-Oct-01 03:29N 35°27' E 139°39'0 0.0
2017-Oct-01 02:59N 35°27' E 139°39'  

Dump ship's entire track history